Pagrindinis puslapis
METAR-TAF:

METAR-TAF

Oro uostai :

Karačis, Pakistanas

platuma: 24-54N, ilguma: 067-08E, Aukštis: 21 m

Dabartinis oras

Ataskaita buvo paskelbta 41 minutes, ne 07:30 UTC
Vėjas 3 kt nuo kintamojo kryptimis
Temperatūra 24°C
Drėgmė 7%
Slėgis 1020 hPa
Matomumas: 5000 m
migla

METAR: OPKC 250730Z VRB03KT 5000 HZ NSC 24/M14 Q1020 NOSIG

Laikas: 13:11 (08:11 UTC)

Prognozė

Ataskaita buvo paskelbta 4 valandos ir 41 minutes, ne 03:30 UTC
Prognozė galioja nuo 25 metu 06 UTC su 26 metu 12 UTC
Vėjas 12 kt iš Šiaurės/Šiaurės Rytų
Matomumas: 6000 m
migla
Tapsmas
nuo 25 metu 18 UTC su 25 metu 20 UTC
Vėjas 10 kt iš Vakarų
Matomumas: 5000 m
migla
Laikinai
nuo 26 metu 00 UTC su 26 metu 04 UTC
Vėjas 7 kt iš Šiaurės/Šiaurės Rytų
Matomumas: 3000 m
migla
Nuo 26 metu 0500 UTC
Vėjas 10 kt iš Šiaurės/Šiaurės Rytų
Matomumas: 6000 m

TAF: OPKC 250330Z 2506/2612 03012KT 6000 HZ NSC BECMG 2518/2520 27010KT 5000 HZ NSC TEMPO 2600/2604 03007KT 3000 HZ NSC FM260500 03010KT 6000 NSC

Orai ataskaitas ir orų prognozės (METAR, TAF).

turimą stotys yra geltonos ir raudonos taškus žemėlapyje.

Perkelti pele per norėdami pamatyti stoties vardą.

Tada spustelėkite, norėdami matyti oro stebėjimo ir prognozės.

Norėdami pakeisti žemėlapį: spustelėkite ant žalios mygtukų su juodo kryžiaus žemyn,; žalią mygtuką su brūkšneliu, jei norite nutolinti; arba žalių rodyklių gretimoms žemėlapius.


METAR-TAF: